Terminal Aerodrome Forecast
Issued by NWS

Home | Current Version | Previous Version | Text Only | Print | Product List | Glossary On
Versions: 1 2 3 4 5 6 7 8 9 10 11 12
000
FTUS41 KLWX 222300 RRA
TAFMTN
TAF
KMTN 222341Z 2300/2324 10010KT P6SM SCT030 BKN070
     FM230300 15006KT P6SM SCT030 OVC080
     FM230600 14006KT P6SM OVC025
     FM230800 13006KT P6SM OVC010
     FM231400 09007KT P6SM OVC015
     FM231800 09007KT P6SM BKN030
     FM231900 09007KT P6SM BKN035
      AMD NOT SKED 2302/2312=

USA.gov is the U.S. government's official web portal to all federal, state and local government web resources and services.